sensor_id;sensor_type;location;lat;lon;timestamp;temperature;humidity
3816;DHT22;1923;48.154;11.536;2023-05-16T00:01:10;12.70;99.90
3816;DHT22;1923;48.154;11.536;2023-05-16T00:03:38;12.70;99.90
3816;DHT22;1923;48.154;11.536;2023-05-16T00:06:09;12.80;99.90
3816;DHT22;1923;48.154;11.536;2023-05-16T00:08:38;12.70;99.90
3816;DHT22;1923;48.154;11.536;2023-05-16T00:11:06;12.80;99.90
3816;DHT22;1923;48.154;11.536;2023-05-16T00:13:34;12.80;99.90
3816;DHT22;1923;48.154;11.536;2023-05-16T00:16:02;12.90;99.90
3816;DHT22;1923;48.154;11.536;2023-05-16T00:18:30;12.80;99.90
3816;DHT22;1923;48.154;11.536;2023-05-16T00:20:58;12.90;99.90
3816;DHT22;1923;48.154;11.536;2023-05-16T00:23:28;12.80;99.90
3816;DHT22;1923;48.154;11.536;2023-05-16T00:25:56;12.80;99.90
3816;DHT22;1923;48.154;11.536;2023-05-16T00:28:24;12.80;99.90
3816;DHT22;1923;48.154;11.536;2023-05-16T00:30:52;12.80;99.90
3816;DHT22;1923;48.154;11.536;2023-05-16T00:33:20;12.80;99.90
3816;DHT22;1923;48.154;11.536;2023-05-16T00:35:48;12.80;99.90
3816;DHT22;1923;48.154;11.536;2023-05-16T00:38:16;12.80;99.90
3816;DHT22;1923;48.154;11.536;2023-05-16T00:40:45;12.80;99.90
3816;DHT22;1923;48.154;11.536;2023-05-16T00:43:13;12.70;99.90
3816;DHT22;1923;48.154;11.536;2023-05-16T00:45:41;12.60;99.90
3816;DHT22;1923;48.154;11.536;2023-05-16T00:48:11;12.60;99.90
3816;DHT22;1923;48.154;11.536;2023-05-16T00:50:40;12.60;99.90
3816;DHT22;1923;48.154;11.536;2023-05-16T00:53:09;12.70;99.90
3816;DHT22;1923;48.154;11.536;2023-05-16T00:55:37;12.70;99.90
3816;DHT22;1923;48.154;11.536;2023-05-16T00:58:08;12.60;99.90
3816;DHT22;1923;48.154;11.536;2023-05-16T01:00:36;12.60;99.90
3816;DHT22;1923;48.154;11.536;2023-05-16T01:03:05;12.60;99.90
3816;DHT22;1923;48.154;11.536;2023-05-16T01:05:33;12.40;99.90
3816;DHT22;1923;48.154;11.536;2023-05-16T01:08:01;12.50;99.90
3816;DHT22;1923;48.154;11.536;2023-05-16T01:10:35;12.50;99.90
3816;DHT22;1923;48.154;11.536;2023-05-16T01:13:10;12.60;99.90
3816;DHT22;1923;48.154;11.536;2023-05-16T01:15:46;12.60;99.90
3816;DHT22;1923;48.154;11.536;2023-05-16T01:18:22;12.60;99.90
3816;DHT22;1923;48.154;11.536;2023-05-16T01:20:56;12.60;99.90
3816;DHT22;1923;48.154;11.536;2023-05-16T01:23:38;12.60;99.90
3816;DHT22;1923;48.154;11.536;2023-05-16T01:26:16;12.70;99.90
3816;DHT22;1923;48.154;11.536;2023-05-16T01:28:45;12.70;99.90
3816;DHT22;1923;48.154;11.536;2023-05-16T01:31:14;12.70;99.90
3816;DHT22;1923;48.154;11.536;2023-05-16T01:33:43;12.70;99.90
3816;DHT22;1923;48.154;11.536;2023-05-16T01:36:16;12.60;99.90
3816;DHT22;1923;48.154;11.536;2023-05-16T01:38:55;12.70;99.90
3816;DHT22;1923;48.154;11.536;2023-05-16T01:41:31;12.60;99.90
3816;DHT22;1923;48.154;11.536;2023-05-16T01:44:06;12.60;99.90
3816;DHT22;1923;48.154;11.536;2023-05-16T01:46:39;12.50;99.90
3816;DHT22;1923;48.154;11.536;2023-05-16T01:49:14;12.50;99.90
3816;DHT22;1923;48.154;11.536;2023-05-16T01:51:49;12.60;99.90
3816;DHT22;1923;48.154;11.536;2023-05-16T01:54:19;12.50;99.90
3816;DHT22;1923;48.154;11.536;2023-05-16T01:56:52;12.50;99.90
3816;DHT22;1923;48.154;11.536;2023-05-16T01:59:21;12.50;99.90
3816;DHT22;1923;48.154;11.536;2023-05-16T02:01:52;12.50;99.90
3816;DHT22;1923;48.154;11.536;2023-05-16T02:04:21;12.50;99.90
3816;DHT22;1923;48.154;11.536;2023-05-16T02:06:50;12.50;99.90
3816;DHT22;1923;48.154;11.536;2023-05-16T02:09:18;12.40;99.90
3816;DHT22;1923;48.154;11.536;2023-05-16T02:11:46;12.40;99.90
3816;DHT22;1923;48.154;11.536;2023-05-16T02:14:16;12.50;99.90
3816;DHT22;1923;48.154;11.536;2023-05-16T02:16:44;12.50;99.90
3816;DHT22;1923;48.154;11.536;2023-05-16T02:19:12;12.50;99.90
3816;DHT22;1923;48.154;11.536;2023-05-16T02:21:40;12.40;99.90
3816;DHT22;1923;48.154;11.536;2023-05-16T02:24:08;12.40;99.90
3816;DHT22;1923;48.154;11.536;2023-05-16T02:26:36;12.40;99.90
3816;DHT22;1923;48.154;11.536;2023-05-16T02:29:05;12.40;99.90
3816;DHT22;1923;48.154;11.536;2023-05-16T02:31:34;12.40;99.90
3816;DHT22;1923;48.154;11.536;2023-05-16T02:34:02;12.40;99.90
3816;DHT22;1923;48.154;11.536;2023-05-16T02:36:30;12.40;99.90
3816;DHT22;1923;48.154;11.536;2023-05-16T02:39:00;12.30;99.90
3816;DHT22;1923;48.154;11.536;2023-05-16T02:41:28;12.40;99.90
3816;DHT22;1923;48.154;11.536;2023-05-16T02:43:57;12.40;99.90
3816;DHT22;1923;48.154;11.536;2023-05-16T02:46:27;12.40;99.90
3816;DHT22;1923;48.154;11.536;2023-05-16T02:48:57;12.40;99.90
3816;DHT22;1923;48.154;11.536;2023-05-16T02:51:27;12.30;99.90
3816;DHT22;1923;48.154;11.536;2023-05-16T02:53:55;12.30;99.90
3816;DHT22;1923;48.154;11.536;2023-05-16T02:56:25;12.30;99.90
3816;DHT22;1923;48.154;11.536;2023-05-16T02:58:54;12.20;99.90
3816;DHT22;1923;48.154;11.536;2023-05-16T03:01:22;12.30;99.90
3816;DHT22;1923;48.154;11.536;2023-05-16T03:03:50;12.30;99.90
3816;DHT22;1923;48.154;11.536;2023-05-16T03:06:20;12.30;99.90
3816;DHT22;1923;48.154;11.536;2023-05-16T03:08:48;12.20;99.90
3816;DHT22;1923;48.154;11.536;2023-05-16T03:11:17;12.30;99.90
3816;DHT22;1923;48.154;11.536;2023-05-16T03:13:46;12.30;99.90
3816;DHT22;1923;48.154;11.536;2023-05-16T03:16:14;12.30;99.90
3816;DHT22;1923;48.154;11.536;2023-05-16T03:18:42;12.20;99.90
3816;DHT22;1923;48.154;11.536;2023-05-16T03:21:11;12.30;99.90
3816;DHT22;1923;48.154;11.536;2023-05-16T03:23:40;12.20;99.90
3816;DHT22;1923;48.154;11.536;2023-05-16T03:26:08;12.10;99.90
3816;DHT22;1923;48.154;11.536;2023-05-16T03:28:36;12.10;99.90
3816;DHT22;1923;48.154;11.536;2023-05-16T03:31:04;12.20;99.90
3816;DHT22;1923;48.154;11.536;2023-05-16T03:33:32;12.10;99.90
3816;DHT22;1923;48.154;11.536;2023-05-16T03:36:00;12.20;99.90
3816;DHT22;1923;48.154;11.536;2023-05-16T03:38:28;12.20;99.90
3816;DHT22;1923;48.154;11.536;2023-05-16T03:40:58;12.20;99.90
3816;DHT22;1923;48.154;11.536;2023-05-16T03:43:26;12.20;99.90
3816;DHT22;1923;48.154;11.536;2023-05-16T03:45:54;12.20;99.90
3816;DHT22;1923;48.154;11.536;2023-05-16T03:48:22;12.10;99.90
3816;DHT22;1923;48.154;11.536;2023-05-16T03:50:50;12.10;99.90
3816;DHT22;1923;48.154;11.536;2023-05-16T03:53:18;12.20;99.90
3816;DHT22;1923;48.154;11.536;2023-05-16T03:55:46;12.20;99.90
3816;DHT22;1923;48.154;11.536;2023-05-16T03:58:16;12.20;99.90
3816;DHT22;1923;48.154;11.536;2023-05-16T04:00:44;12.20;99.90
3816;DHT22;1923;48.154;11.536;2023-05-16T04:03:12;12.20;99.90
3816;DHT22;1923;48.154;11.536;2023-05-16T04:05:40;12.10;99.90
3816;DHT22;1923;48.154;11.536;2023-05-16T04:08:09;12.10;99.90
3816;DHT22;1923;48.154;11.536;2023-05-16T04:10:37;12.20;99.90
3816;DHT22;1923;48.154;11.536;2023-05-16T04:13:05;12.20;99.90
3816;DHT22;1923;48.154;11.536;2023-05-16T04:15:34;12.30;99.90
3816;DHT22;1923;48.154;11.536;2023-05-16T04:18:02;12.30;99.90
3816;DHT22;1923;48.154;11.536;2023-05-16T04:20:31;12.20;99.90
3816;DHT22;1923;48.154;11.536;2023-05-16T04:22:59;12.20;99.90
3816;DHT22;1923;48.154;11.536;2023-05-16T04:25:27;12.20;99.90
3816;DHT22;1923;48.154;11.536;2023-05-16T04:27:55;12.40;99.90
3816;DHT22;1923;48.154;11.536;2023-05-16T04:30:23;12.30;99.90
3816;DHT22;1923;48.154;11.536;2023-05-16T04:32:53;12.40;99.90
3816;DHT22;1923;48.154;11.536;2023-05-16T04:35:20;12.30;99.90
3816;DHT22;1923;48.154;11.536;2023-05-16T04:37:49;12.30;99.90
3816;DHT22;1923;48.154;11.536;2023-05-16T04:40:17;12.40;99.90
3816;DHT22;1923;48.154;11.536;2023-05-16T04:42:45;12.40;99.90
3816;DHT22;1923;48.154;11.536;2023-05-16T04:45:13;12.40;99.90
3816;DHT22;1923;48.154;11.536;2023-05-16T04:47:41;12.30;99.90
3816;DHT22;1923;48.154;11.536;2023-05-16T04:50:11;12.30;99.90
3816;DHT22;1923;48.154;11.536;2023-05-16T04:52:39;12.40;99.90
3816;DHT22;1923;48.154;11.536;2023-05-16T04:55:08;12.40;99.90
3816;DHT22;1923;48.154;11.536;2023-05-16T04:57:37;12.40;99.90
3816;DHT22;1923;48.154;11.536;2023-05-16T05:00:06;12.50;99.90
3816;DHT22;1923;48.154;11.536;2023-05-16T05:02:35;12.50;99.90
3816;DHT22;1923;48.154;11.536;2023-05-16T05:05:05;12.50;99.90
3816;DHT22;1923;48.154;11.536;2023-05-16T05:07:35;12.70;99.90
3816;DHT22;1923;48.154;11.536;2023-05-16T05:10:04;12.70;99.90
3816;DHT22;1923;48.154;11.536;2023-05-16T05:12:34;12.80;99.90
3816;DHT22;1923;48.154;11.536;2023-05-16T05:15:02;12.80;99.90
3816;DHT22;1923;48.154;11.536;2023-05-16T05:17:30;12.80;99.90
3816;DHT22;1923;48.154;11.536;2023-05-16T05:19:59;12.80;99.90
3816;DHT22;1923;48.154;11.536;2023-05-16T05:22:29;12.80;99.90
3816;DHT22;1923;48.154;11.536;2023-05-16T05:24:58;12.80;99.90
3816;DHT22;1923;48.154;11.536;2023-05-16T05:27:26;12.80;99.90
3816;DHT22;1923;48.154;11.536;2023-05-16T05:29:54;12.80;99.90
3816;DHT22;1923;48.154;11.536;2023-05-16T05:32:22;12.80;99.90
3816;DHT22;1923;48.154;11.536;2023-05-16T05:34:50;12.80;99.90
3816;DHT22;1923;48.154;11.536;2023-05-16T05:37:18;12.80;99.90
3816;DHT22;1923;48.154;11.536;2023-05-16T05:39:46;12.70;99.90
3816;DHT22;1923;48.154;11.536;2023-05-16T05:42:16;12.60;99.90
3816;DHT22;1923;48.154;11.536;2023-05-16T05:44:44;12.50;99.90
3816;DHT22;1923;48.154;11.536;2023-05-16T05:47:12;12.50;99.90
3816;DHT22;1923;48.154;11.536;2023-05-16T05:49:40;12.50;99.90
3816;DHT22;1923;48.154;11.536;2023-05-16T05:52:08;12.40;99.90
3816;DHT22;1923;48.154;11.536;2023-05-16T05:54:36;12.40;99.90
3816;DHT22;1923;48.154;11.536;2023-05-16T05:57:04;12.50;99.90
3816;DHT22;1923;48.154;11.536;2023-05-16T05:59:34;12.50;99.90
3816;DHT22;1923;48.154;11.536;2023-05-16T06:02:02;12.40;99.90
3816;DHT22;1923;48.154;11.536;2023-05-16T06:04:31;12.40;99.90
3816;DHT22;1923;48.154;11.536;2023-05-16T06:06:59;12.40;99.90
3816;DHT22;1923;48.154;11.536;2023-05-16T06:09:27;12.40;99.90
3816;DHT22;1923;48.154;11.536;2023-05-16T06:11:55;12.40;99.90
3816;DHT22;1923;48.154;11.536;2023-05-16T06:14:23;12.30;99.90
3816;DHT22;1923;48.154;11.536;2023-05-16T06:16:52;12.40;99.90
3816;DHT22;1923;48.154;11.536;2023-05-16T06:19:20;12.40;99.90
3816;DHT22;1923;48.154;11.536;2023-05-16T06:21:48;12.50;99.90
3816;DHT22;1923;48.154;11.536;2023-05-16T06:24:16;12.50;99.90
3816;DHT22;1923;48.154;11.536;2023-05-16T06:26:44;12.60;99.90
3816;DHT22;1923;48.154;11.536;2023-05-16T06:29:15;12.60;99.90
3816;DHT22;1923;48.154;11.536;2023-05-16T06:31:44;12.70;99.90
3816;DHT22;1923;48.154;11.536;2023-05-16T06:34:14;12.70;99.90
3816;DHT22;1923;48.154;11.536;2023-05-16T06:36:42;12.90;99.90
3816;DHT22;1923;48.154;11.536;2023-05-16T06:39:10;13.10;99.90
3816;DHT22;1923;48.154;11.536;2023-05-16T06:41:38;13.30;99.90
3816;DHT22;1923;48.154;11.536;2023-05-16T06:44:06;13.40;99.90
3816;DHT22;1923;48.154;11.536;2023-05-16T06:46:34;13.40;99.90
3816;DHT22;1923;48.154;11.536;2023-05-16T06:49:02;13.50;99.90
3816;DHT22;1923;48.154;11.536;2023-05-16T06:51:31;13.60;99.90
3816;DHT22;1923;48.154;11.536;2023-05-16T06:53:59;13.70;99.90
3816;DHT22;1923;48.154;11.536;2023-05-16T06:56:30;13.70;99.90
3816;DHT22;1923;48.154;11.536;2023-05-16T06:58:58;13.70;99.90
3816;DHT22;1923;48.154;11.536;2023-05-16T07:01:27;13.90;99.90
3816;DHT22;1923;48.154;11.536;2023-05-16T07:03:55;14.10;99.90
3816;DHT22;1923;48.154;11.536;2023-05-16T07:06:24;13.90;99.90
3816;DHT22;1923;48.154;11.536;2023-05-16T07:08:53;13.80;99.90
3816;DHT22;1923;48.154;11.536;2023-05-16T07:11:21;13.90;99.90
3816;DHT22;1923;48.154;11.536;2023-05-16T07:13:50;13.90;99.90
3816;DHT22;1923;48.154;11.536;2023-05-16T07:16:18;13.90;99.90
3816;DHT22;1923;48.154;11.536;2023-05-16T07:18:46;14.00;99.90
3816;DHT22;1923;48.154;11.536;2023-05-16T07:21:14;13.90;99.90
3816;DHT22;1923;48.154;11.536;2023-05-16T07:23:42;14.10;99.90
3816;DHT22;1923;48.154;11.536;2023-05-16T07:26:11;14.00;99.90
3816;DHT22;1923;48.154;11.536;2023-05-16T07:28:39;13.90;99.90
3816;DHT22;1923;48.154;11.536;2023-05-16T07:31:08;13.80;99.90
3816;DHT22;1923;48.154;11.536;2023-05-16T07:33:36;13.80;99.90
3816;DHT22;1923;48.154;11.536;2023-05-16T07:36:05;13.80;99.90
3816;DHT22;1923;48.154;11.536;2023-05-16T07:38:43;13.80;99.90
3816;DHT22;1923;48.154;11.536;2023-05-16T07:41:13;13.70;99.90
3816;DHT22;1923;48.154;11.536;2023-05-16T07:43:41;13.60;99.90
3816;DHT22;1923;48.154;11.536;2023-05-16T07:46:09;13.50;99.90
3816;DHT22;1923;48.154;11.536;2023-05-16T07:48:38;13.50;99.90
3816;DHT22;1923;48.154;11.536;2023-05-16T07:51:06;13.50;99.90
3816;DHT22;1923;48.154;11.536;2023-05-16T07:53:34;13.50;99.90
3816;DHT22;1923;48.154;11.536;2023-05-16T07:56:02;13.40;99.90
3816;DHT22;1923;48.154;11.536;2023-05-16T07:58:31;13.40;99.90
3816;DHT22;1923;48.154;11.536;2023-05-16T08:01:00;13.40;99.90
3816;DHT22;1923;48.154;11.536;2023-05-16T08:03:28;13.20;99.90
3816;DHT22;1923;48.154;11.536;2023-05-16T08:05:56;13.20;99.90
3816;DHT22;1923;48.154;11.536;2023-05-16T08:08:24;13.20;99.90
3816;DHT22;1923;48.154;11.536;2023-05-16T08:10:52;13.00;99.90
3816;DHT22;1923;48.154;11.536;2023-05-16T08:13:20;13.10;99.90
3816;DHT22;1923;48.154;11.536;2023-05-16T08:15:50;13.10;99.90
3816;DHT22;1923;48.154;11.536;2023-05-16T08:18:18;13.10;99.90
3816;DHT22;1923;48.154;11.536;2023-05-16T08:20:48;13.10;99.90
3816;DHT22;1923;48.154;11.536;2023-05-16T08:23:17;13.10;99.90
3816;DHT22;1923;48.154;11.536;2023-05-16T08:25:45;13.10;99.90
3816;DHT22;1923;48.154;11.536;2023-05-16T08:28:14;13.00;99.90
3816;DHT22;1923;48.154;11.536;2023-05-16T08:30:42;13.10;99.90
3816;DHT22;1923;48.154;11.536;2023-05-16T08:33:14;13.10;99.90
3816;DHT22;1923;48.154;11.536;2023-05-16T08:35:43;13.10;99.90
3816;DHT22;1923;48.154;11.536;2023-05-16T08:38:12;13.10;99.90
3816;DHT22;1923;48.154;11.536;2023-05-16T08:40:41;13.10;99.90
3816;DHT22;1923;48.154;11.536;2023-05-16T08:43:09;13.20;99.90
3816;DHT22;1923;48.154;11.536;2023-05-16T08:45:39;13.20;99.90
3816;DHT22;1923;48.154;11.536;2023-05-16T08:48:09;13.20;99.90
3816;DHT22;1923;48.154;11.536;2023-05-16T08:50:39;13.20;99.90
3816;DHT22;1923;48.154;11.536;2023-05-16T08:53:09;13.20;99.90
3816;DHT22;1923;48.154;11.536;2023-05-16T08:55:40;13.30;99.90
3816;DHT22;1923;48.154;11.536;2023-05-16T08:58:09;13.30;99.90
3816;DHT22;1923;48.154;11.536;2023-05-16T09:00:38;13.40;99.90
3816;DHT22;1923;48.154;11.536;2023-05-16T09:03:07;13.40;99.90
3816;DHT22;1923;48.154;11.536;2023-05-16T09:05:35;13.60;99.90
3816;DHT22;1923;48.154;11.536;2023-05-16T09:08:05;13.90;99.90
3816;DHT22;1923;48.154;11.536;2023-05-16T09:10:33;14.00;99.90
3816;DHT22;1923;48.154;11.536;2023-05-16T09:13:01;14.20;99.90
3816;DHT22;1923;48.154;11.536;2023-05-16T09:15:31;14.30;99.90
3816;DHT22;1923;48.154;11.536;2023-05-16T09:17:59;14.50;99.90
3816;DHT22;1923;48.154;11.536;2023-05-16T09:20:28;14.40;99.90
3816;DHT22;1923;48.154;11.536;2023-05-16T09:22:57;14.50;99.90
3816;DHT22;1923;48.154;11.536;2023-05-16T09:25:29;14.40;99.90
3816;DHT22;1923;48.154;11.536;2023-05-16T09:27:59;14.50;99.90
3816;DHT22;1923;48.154;11.536;2023-05-16T09:30:30;14.40;99.90
3816;DHT22;1923;48.154;11.536;2023-05-16T09:32:59;14.40;99.90
3816;DHT22;1923;48.154;11.536;2023-05-16T09:35:27;14.30;99.90
3816;DHT22;1923;48.154;11.536;2023-05-16T09:38:13;14.40;99.90
3816;DHT22;1923;48.154;11.536;2023-05-16T09:40:44;14.60;99.90
3816;DHT22;1923;48.154;11.536;2023-05-16T09:43:14;14.50;99.90
3816;DHT22;1923;48.154;11.536;2023-05-16T09:45:45;14.70;99.90
3816;DHT22;1923;48.154;11.536;2023-05-16T09:48:15;14.80;99.90
3816;DHT22;1923;48.154;11.536;2023-05-16T09:50:48;14.90;99.90
3816;DHT22;1923;48.154;11.536;2023-05-16T09:53:24;14.80;99.90
3816;DHT22;1923;48.154;11.536;2023-05-16T09:56:03;14.90;99.90
3816;DHT22;1923;48.154;11.536;2023-05-16T09:58:33;14.80;99.90
3816;DHT22;1923;48.154;11.536;2023-05-16T10:01:02;14.80;99.90
3816;DHT22;1923;48.154;11.536;2023-05-16T10:03:32;15.00;99.90
3816;DHT22;1923;48.154;11.536;2023-05-16T10:06:02;15.20;99.90
3816;DHT22;1923;48.154;11.536;2023-05-16T10:08:33;15.10;99.90
3816;DHT22;1923;48.154;11.536;2023-05-16T10:11:05;15.00;99.90
3816;DHT22;1923;48.154;11.536;2023-05-16T10:13:34;15.00;99.90
3816;DHT22;1923;48.154;11.536;2023-05-16T10:16:06;15.10;99.90
3816;DHT22;1923;48.154;11.536;2023-05-16T10:18:38;15.10;99.90
3816;DHT22;1923;48.154;11.536;2023-05-16T10:21:09;15.00;99.90
3816;DHT22;1923;48.154;11.536;2023-05-16T10:23:41;14.90;99.90
3816;DHT22;1923;48.154;11.536;2023-05-16T10:26:11;14.90;99.90
3816;DHT22;1923;48.154;11.536;2023-05-16T10:28:41;14.80;99.90
3816;DHT22;1923;48.154;11.536;2023-05-16T10:31:09;14.80;99.90
3816;DHT22;1923;48.154;11.536;2023-05-16T10:33:38;14.80;99.90
3816;DHT22;1923;48.154;11.536;2023-05-16T10:36:07;14.70;99.90
3816;DHT22;1923;48.154;11.536;2023-05-16T10:38:36;14.50;99.90
3816;DHT22;1923;48.154;11.536;2023-05-16T10:41:05;14.50;99.90
3816;DHT22;1923;48.154;11.536;2023-05-16T10:43:34;14.30;99.90
3816;DHT22;1923;48.154;11.536;2023-05-16T10:46:04;14.20;99.90
3816;DHT22;1923;48.154;11.536;2023-05-16T10:48:34;14.20;99.90
3816;DHT22;1923;48.154;11.536;2023-05-16T10:51:32;14.20;99.90
3816;DHT22;1923;48.154;11.536;2023-05-16T10:53:54;14.10;99.90
3816;DHT22;1923;48.154;11.536;2023-05-16T10:56:23;14.20;99.90
3816;DHT22;1923;48.154;11.536;2023-05-16T10:58:53;14.20;99.90
3816;DHT22;1923;48.154;11.536;2023-05-16T11:01:23;14.10;99.90
3816;DHT22;1923;48.154;11.536;2023-05-16T11:04:10;14.00;99.90
3816;DHT22;1923;48.154;11.536;2023-05-16T11:06:49;13.90;99.90
3816;DHT22;1923;48.154;11.536;2023-05-16T11:09:20;13.90;99.90
3816;DHT22;1923;48.154;11.536;2023-05-16T11:11:57;13.80;99.90
3816;DHT22;1923;48.154;11.536;2023-05-16T11:14:26;13.80;99.90
3816;DHT22;1923;48.154;11.536;2023-05-16T11:17:00;13.60;99.90
3816;DHT22;1923;48.154;11.536;2023-05-16T11:19:31;13.50;99.90
3816;DHT22;1923;48.154;11.536;2023-05-16T11:22:11;13.40;99.90
3816;DHT22;1923;48.154;11.536;2023-05-16T11:24:52;13.50;99.90
3816;DHT22;1923;48.154;11.536;2023-05-16T11:27:21;13.40;99.90
3816;DHT22;1923;48.154;11.536;2023-05-16T11:29:51;13.30;99.90
3816;DHT22;1923;48.154;11.536;2023-05-16T11:32:19;13.20;99.90
3816;DHT22;1923;48.154;11.536;2023-05-16T11:34:49;12.90;99.90
3816;DHT22;1923;48.154;11.536;2023-05-16T11:37:18;12.90;99.90
3816;DHT22;1923;48.154;11.536;2023-05-16T11:39:46;12.70;99.90
3816;DHT22;1923;48.154;11.536;2023-05-16T11:42:16;12.80;99.90
3816;DHT22;1923;48.154;11.536;2023-05-16T11:44:45;12.90;99.90
3816;DHT22;1923;48.154;11.536;2023-05-16T11:47:13;12.90;99.90
3816;DHT22;1923;48.154;11.536;2023-05-16T11:49:41;13.00;99.90
3816;DHT22;1923;48.154;11.536;2023-05-16T11:52:15;13.20;99.90
3816;DHT22;1923;48.154;11.536;2023-05-16T11:54:44;13.30;99.90
3816;DHT22;1923;48.154;11.536;2023-05-16T11:57:12;13.40;99.90
3816;DHT22;1923;48.154;11.536;2023-05-16T11:59:41;13.60;99.90
3816;DHT22;1923;48.154;11.536;2023-05-16T12:02:09;13.80;99.90
3816;DHT22;1923;48.154;11.536;2023-05-16T12:04:37;14.00;99.90
3816;DHT22;1923;48.154;11.536;2023-05-16T12:07:05;14.10;99.90
3816;DHT22;1923;48.154;11.536;2023-05-16T12:09:33;14.30;99.90
3816;DHT22;1923;48.154;11.536;2023-05-16T12:12:04;14.50;99.90
3816;DHT22;1923;48.154;11.536;2023-05-16T12:14:32;14.60;99.90
3816;DHT22;1923;48.154;11.536;2023-05-16T12:17:02;14.70;99.90
3816;DHT22;1923;48.154;11.536;2023-05-16T12:19:31;14.70;99.90
3816;DHT22;1923;48.154;11.536;2023-05-16T12:21:59;14.90;99.90
3816;DHT22;1923;48.154;11.536;2023-05-16T12:24:31;15.00;99.90
3816;DHT22;1923;48.154;11.536;2023-05-16T12:26:59;15.10;99.90
3816;DHT22;1923;48.154;11.536;2023-05-16T12:29:27;15.30;99.90
3816;DHT22;1923;48.154;11.536;2023-05-16T12:31:55;15.40;99.90
3816;DHT22;1923;48.154;11.536;2023-05-16T12:34:28;15.40;99.90
3816;DHT22;1923;48.154;11.536;2023-05-16T12:36:58;15.40;99.90
3816;DHT22;1923;48.154;11.536;2023-05-16T12:39:35;15.50;99.90
3816;DHT22;1923;48.154;11.536;2023-05-16T12:42:04;15.60;99.90
3816;DHT22;1923;48.154;11.536;2023-05-16T12:44:33;15.70;99.90
3816;DHT22;1923;48.154;11.536;2023-05-16T12:47:01;15.80;99.90
3816;DHT22;1923;48.154;11.536;2023-05-16T12:49:32;15.80;99.90
3816;DHT22;1923;48.154;11.536;2023-05-16T12:52:00;15.90;99.90
3816;DHT22;1923;48.154;11.536;2023-05-16T12:54:31;16.00;99.90
3816;DHT22;1923;48.154;11.536;2023-05-16T12:56:59;16.10;99.90
3816;DHT22;1923;48.154;11.536;2023-05-16T12:59:27;16.00;99.90
3816;DHT22;1923;48.154;11.536;2023-05-16T13:01:57;15.90;99.90
3816;DHT22;1923;48.154;11.536;2023-05-16T13:04:25;16.00;99.90
3816;DHT22;1923;48.154;11.536;2023-05-16T13:06:54;16.00;99.90
3816;DHT22;1923;48.154;11.536;2023-05-16T13:09:25;16.10;99.90
3816;DHT22;1923;48.154;11.536;2023-05-16T13:11:58;16.20;99.90
3816;DHT22;1923;48.154;11.536;2023-05-16T13:14:27;16.30;99.90
3816;DHT22;1923;48.154;11.536;2023-05-16T13:16:56;16.30;99.90
3816;DHT22;1923;48.154;11.536;2023-05-16T13:19:24;16.40;99.90
3816;DHT22;1923;48.154;11.536;2023-05-16T13:21:54;16.30;99.90
3816;DHT22;1923;48.154;11.536;2023-05-16T13:24:22;16.20;99.90
3816;DHT22;1923;48.154;11.536;2023-05-16T13:26:51;16.00;99.90
3816;DHT22;1923;48.154;11.536;2023-05-16T13:29:19;15.60;99.90
3816;DHT22;1923;48.154;11.536;2023-05-16T13:31:47;15.40;99.90
3816;DHT22;1923;48.154;11.536;2023-05-16T13:34:16;15.30;99.90
3816;DHT22;1923;48.154;11.536;2023-05-16T13:36:44;15.10;99.90
3816;DHT22;1923;48.154;11.536;2023-05-16T13:39:21;14.80;99.90
3816;DHT22;1923;48.154;11.536;2023-05-16T13:41:50;14.50;99.90
3816;DHT22;1923;48.154;11.536;2023-05-16T13:44:18;14.20;99.90
3816;DHT22;1923;48.154;11.536;2023-05-16T13:46:47;14.00;99.90
3816;DHT22;1923;48.154;11.536;2023-05-16T13:49:16;13.80;99.90
3816;DHT22;1923;48.154;11.536;2023-05-16T13:51:47;13.60;99.90
3816;DHT22;1923;48.154;11.536;2023-05-16T13:54:15;13.40;99.90
3816;DHT22;1923;48.154;11.536;2023-05-16T13:56:45;13.30;99.90
3816;DHT22;1923;48.154;11.536;2023-05-16T13:59:13;13.20;99.90
3816;DHT22;1923;48.154;11.536;2023-05-16T14:01:58;12.90;99.90
3816;DHT22;1923;48.154;11.536;2023-05-16T14:04:26;12.90;99.90
3816;DHT22;1923;48.154;11.536;2023-05-16T14:06:54;12.80;99.90
3816;DHT22;1923;48.154;11.536;2023-05-16T14:09:23;12.80;99.90
3816;DHT22;1923;48.154;11.536;2023-05-16T14:11:52;12.80;99.90
3816;DHT22;1923;48.154;11.536;2023-05-16T14:14:20;12.60;99.90
3816;DHT22;1923;48.154;11.536;2023-05-16T14:16:48;12.60;99.90
3816;DHT22;1923;48.154;11.536;2023-05-16T14:19:17;12.50;99.90
3816;DHT22;1923;48.154;11.536;2023-05-16T14:21:46;12.40;99.90
3816;DHT22;1923;48.154;11.536;2023-05-16T14:24:14;12.30;99.90
3816;DHT22;1923;48.154;11.536;2023-05-16T14:26:42;12.20;99.90
3816;DHT22;1923;48.154;11.536;2023-05-16T14:29:12;12.30;99.90
3816;DHT22;1923;48.154;11.536;2023-05-16T14:31:40;12.30;99.90
3816;DHT22;1923;48.154;11.536;2023-05-16T14:34:08;12.40;99.90
3816;DHT22;1923;48.154;11.536;2023-05-16T14:36:36;12.40;99.90
3816;DHT22;1923;48.154;11.536;2023-05-16T14:39:04;12.40;99.90
3816;DHT22;1923;48.154;11.536;2023-05-16T14:41:34;12.40;99.90
3816;DHT22;1923;48.154;11.536;2023-05-16T14:44:03;12.50;99.90
3816;DHT22;1923;48.154;11.536;2023-05-16T14:46:33;12.40;99.90
3816;DHT22;1923;48.154;11.536;2023-05-16T14:49:01;12.30;99.90
3816;DHT22;1923;48.154;11.536;2023-05-16T14:51:30;12.30;99.90
3816;DHT22;1923;48.154;11.536;2023-05-16T14:53:58;12.30;99.90
3816;DHT22;1923;48.154;11.536;2023-05-16T14:56:27;12.20;99.90
3816;DHT22;1923;48.154;11.536;2023-05-16T14:58:56;12.30;99.90
3816;DHT22;1923;48.154;11.536;2023-05-16T15:01:24;12.20;99.90
3816;DHT22;1923;48.154;11.536;2023-05-16T15:03:54;12.30;99.90
3816;DHT22;1923;48.154;11.536;2023-05-16T15:06:22;12.20;99.90
3816;DHT22;1923;48.154;11.536;2023-05-16T15:08:51;12.20;99.90
3816;DHT22;1923;48.154;11.536;2023-05-16T15:11:20;12.20;99.90
3816;DHT22;1923;48.154;11.536;2023-05-16T15:13:49;12.10;99.90
3816;DHT22;1923;48.154;11.536;2023-05-16T15:16:17;12.20;99.90
3816;DHT22;1923;48.154;11.536;2023-05-16T15:18:45;12.30;99.90
3816;DHT22;1923;48.154;11.536;2023-05-16T15:21:15;12.40;99.90
3816;DHT22;1923;48.154;11.536;2023-05-16T15:23:43;12.40;99.90
3816;DHT22;1923;48.154;11.536;2023-05-16T15:26:11;12.40;99.90
3816;DHT22;1923;48.154;11.536;2023-05-16T15:28:39;12.50;99.90
3816;DHT22;1923;48.154;11.536;2023-05-16T15:31:07;12.60;99.90
3816;DHT22;1923;48.154;11.536;2023-05-16T15:33:36;12.50;99.90
3816;DHT22;1923;48.154;11.536;2023-05-16T15:36:05;12.50;99.90
3816;DHT22;1923;48.154;11.536;2023-05-16T15:38:34;12.50;99.90
3816;DHT22;1923;48.154;11.536;2023-05-16T15:41:03;12.50;99.90
3816;DHT22;1923;48.154;11.536;2023-05-16T15:43:39;12.40;99.90
3816;DHT22;1923;48.154;11.536;2023-05-16T15:46:08;12.50;99.90
3816;DHT22;1923;48.154;11.536;2023-05-16T15:48:37;12.30;99.90
3816;DHT22;1923;48.154;11.536;2023-05-16T15:51:08;12.30;99.90
3816;DHT22;1923;48.154;11.536;2023-05-16T15:53:38;12.40;99.90
3816;DHT22;1923;48.154;11.536;2023-05-16T15:56:07;12.30;99.90
3816;DHT22;1923;48.154;11.536;2023-05-16T15:58:36;12.30;99.90